createdAt,value
2017-10-27T00:02:12.241Z,14.67
2017-10-27T00:04:41.258Z,14.10
2017-10-27T00:07:09.542Z,13.53
2017-10-27T00:09:37.783Z,14.13
2017-10-27T00:12:06.074Z,14.67
2017-10-27T00:14:34.339Z,15.23
2017-10-27T00:17:03.381Z,14.30
2017-10-27T00:19:31.635Z,14.70
2017-10-27T00:21:59.904Z,15.40
2017-10-27T00:24:28.161Z,15.43
2017-10-27T00:26:56.424Z,16.30
2017-10-27T00:29:25.451Z,15.40
2017-10-27T00:31:53.712Z,15.83
2017-10-27T00:34:21.983Z,15.37
2017-10-27T00:36:50.250Z,15.17
2017-10-27T00:39:19.273Z,15.00
2017-10-27T00:41:47.546Z,16.67
2017-10-27T00:44:15.799Z,13.97
2017-10-27T00:46:44.131Z,15.97
2017-10-27T00:49:12.545Z,16.90
2017-10-27T00:51:40.768Z,15.87
2017-10-27T00:54:09.012Z,15.40
2017-10-27T00:56:38.049Z,14.90
2017-10-27T00:59:06.320Z,15.60
2017-10-27T01:01:34.638Z,16.20
2017-10-27T01:04:02.948Z,15.50
2017-10-27T01:06:31.223Z,15.83
2017-10-27T01:08:59.499Z,16.53
2017-10-27T01:11:27.751Z,15.30
2017-10-27T01:13:56.054Z,14.30
2017-10-27T01:16:24.303Z,14.37
2017-10-27T01:18:52.602Z,14.70
2017-10-27T01:21:20.855Z,14.30
2017-10-27T01:23:49.129Z,15.33
2017-10-27T01:26:18.167Z,15.70
2017-10-27T01:28:46.432Z,15.70
2017-10-27T01:31:14.699Z,15.83
2017-10-27T01:33:42.976Z,14.90
2017-10-27T01:36:11.275Z,16.30
2017-10-27T01:38:40.363Z,16.23
2017-10-27T01:41:08.635Z,15.00
2017-10-27T01:43:36.888Z,15.60
2017-10-27T01:46:05.148Z,14.67
2017-10-27T01:48:33.407Z,14.60
2017-10-27T01:51:01.690Z,14.27
2017-10-27T01:53:29.946Z,14.90
2017-10-27T01:55:58.230Z,15.60
2017-10-27T01:58:26.513Z,15.23
2017-10-27T02:00:54.785Z,13.63
2017-10-27T02:03:23.070Z,15.63
2017-10-27T02:05:51.342Z,14.97
2017-10-27T02:08:19.734Z,15.90
2017-10-27T02:10:48.054Z,14.67
2017-10-27T02:13:16.319Z,15.43
2017-10-27T02:15:44.618Z,14.60
2017-10-27T02:18:12.879Z,15.60
2017-10-27T02:20:41.148Z,14.67
2017-10-27T02:23:09.421Z,15.40
2017-10-27T02:25:37.703Z,14.60
2017-10-27T02:28:06.031Z,15.33
2017-10-27T02:30:34.391Z,15.17
2017-10-27T02:33:02.651Z,14.47
2017-10-27T02:35:30.942Z,14.20
2017-10-27T02:37:59.231Z,16.27
2017-10-27T02:40:27.490Z,14.73
2017-10-27T02:42:56.093Z,15.27
2017-10-27T02:45:24.343Z,14.90
2017-10-27T02:47:52.607Z,13.57
2017-10-27T02:50:20.875Z,15.10
2017-10-27T02:52:49.132Z,15.33
2017-10-27T02:55:18.167Z,15.87
2017-10-27T02:57:46.447Z,15.10
2017-10-27T03:00:14.716Z,13.27
2017-10-27T03:02:42.985Z,15.60
2017-10-27T03:05:11.260Z,15.10
2017-10-27T03:07:39.508Z,14.17
2017-10-27T03:10:08.529Z,15.20
2017-10-27T03:12:36.784Z,13.27
2017-10-27T03:15:05.811Z,12.07
2017-10-27T03:17:34.087Z,14.27
2017-10-27T03:20:02.347Z,12.10
2017-10-27T03:22:30.607Z,12.87
2017-10-27T03:24:59.627Z,10.73
2017-10-27T03:27:27.926Z,10.50
2017-10-27T03:29:56.144Z,11.80
2017-10-27T03:32:25.144Z,10.40
2017-10-27T03:34:53.426Z,10.90
2017-10-27T03:37:21.697Z,10.23
2017-10-27T03:39:50.734Z,11.43
2017-10-27T03:42:18.956Z,9.83
2017-10-27T03:44:47.984Z,10.33
2017-10-27T03:47:16.252Z,10.57
2017-10-27T03:49:44.495Z,10.00
2017-10-27T03:52:12.731Z,10.70
2017-10-27T03:54:40.999Z,10.97
2017-10-27T03:57:09.264Z,9.70
2017-10-27T03:59:37.534Z,9.83
2017-10-27T04:02:05.792Z,9.87
2017-10-27T04:04:34.828Z,11.30
2017-10-27T04:07:03.090Z,8.87
2017-10-27T04:09:31.325Z,8.60
2017-10-27T04:11:59.592Z,7.97
2017-10-27T04:14:27.828Z,9.83
2017-10-27T04:16:56.083Z,8.77
2017-10-27T04:19:24.325Z,8.40
2017-10-27T04:21:53.357Z,7.90
2017-10-27T04:24:21.606Z,8.30
2017-10-27T04:26:49.889Z,7.67
2017-10-27T04:29:18.137Z,7.23
2017-10-27T04:31:46.370Z,7.53
2017-10-27T04:34:14.628Z,7.13
2017-10-27T04:36:42.873Z,7.10
2017-10-27T04:39:11.899Z,6.63
2017-10-27T04:41:40.138Z,5.60
2017-10-27T04:44:08.421Z,6.00
2017-10-27T04:46:36.636Z,5.80
2017-10-27T04:49:04.894Z,6.27
2017-10-27T04:51:33.162Z,5.87
2017-10-27T04:54:01.420Z,5.97
2017-10-27T04:56:29.682Z,4.83
2017-10-27T04:58:57.924Z,4.20
2017-10-27T05:01:26.156Z,4.23
2017-10-27T05:03:54.421Z,4.50
2017-10-27T05:06:24.168Z,4.93
2017-10-27T05:08:52.535Z,6.47
2017-10-27T05:11:21.561Z,5.57
2017-10-27T05:13:49.806Z,4.13
2017-10-27T05:16:23.761Z,3.67
2017-10-27T05:18:57.708Z,3.00
2017-10-27T05:21:32.378Z,3.27
2017-10-27T05:24:06.237Z,2.87
2017-10-27T05:26:34.476Z,3.43
2017-10-27T05:29:02.735Z,3.03
2017-10-27T05:31:30.977Z,3.10
2017-10-27T05:33:59.987Z,3.30
2017-10-27T05:36:28.267Z,3.07
2017-10-27T05:38:56.536Z,3.70
2017-10-27T05:41:24.806Z,3.10
2017-10-27T05:43:53.059Z,3.23
2017-10-27T05:46:21.320Z,2.90
2017-10-27T05:48:49.596Z,2.70
2017-10-27T05:51:17.839Z,2.63
2017-10-27T05:53:46.107Z,2.87
2017-10-27T05:56:14.461Z,3.70
2017-10-27T05:58:42.682Z,3.10
2017-10-27T06:01:10.979Z,3.00
2017-10-27T06:03:39.243Z,3.27
2017-10-27T06:06:07.484Z,3.30
2017-10-27T06:08:35.779Z,5.23
2017-10-27T06:11:04.039Z,4.90
2017-10-27T06:13:32.292Z,4.37
2017-10-27T06:16:01.299Z,3.67
2017-10-27T06:18:29.560Z,3.27
2017-10-27T06:20:58.571Z,3.40
2017-10-27T06:23:26.825Z,2.63
2017-10-27T06:25:55.114Z,3.00
2017-10-27T06:28:23.374Z,2.70
2017-10-27T06:30:52.395Z,2.37
2017-10-27T06:33:20.636Z,2.23
2017-10-27T06:35:49.669Z,2.17
2017-10-27T06:38:17.923Z,3.17
2017-10-27T06:40:46.196Z,2.00
2017-10-27T06:43:15.199Z,2.53
2017-10-27T06:45:43.482Z,2.73
2017-10-27T06:48:11.732Z,2.80
2017-10-27T06:50:40.829Z,2.60
2017-10-27T06:53:09.060Z,2.60
2017-10-27T06:55:37.312Z,2.50
2017-10-27T06:58:05.557Z,3.00
2017-10-27T07:00:34.568Z,3.07
2017-10-27T07:03:02.848Z,3.07
2017-10-27T07:05:31.126Z,3.17
2017-10-27T07:07:59.372Z,2.90
2017-10-27T07:10:27.631Z,2.80
2017-10-27T07:12:55.895Z,2.97
2017-10-27T07:15:24.141Z,3.00
2017-10-27T07:17:52.404Z,2.90
2017-10-27T07:20:20.647Z,3.00
2017-10-27T07:22:48.898Z,6.17
2017-10-27T07:25:17.186Z,5.87
2017-10-27T07:27:45.475Z,3.43
2017-10-27T07:30:13.718Z,3.30
2017-10-27T07:32:41.991Z,3.33
2017-10-27T07:35:10.327Z,2.53
2017-10-27T07:37:38.560Z,2.43
2017-10-27T07:40:06.803Z,3.23
2017-10-27T07:42:35.069Z,3.63
2017-10-27T07:45:03.330Z,3.00
2017-10-27T07:47:31.634Z,2.77
2017-10-27T07:49:59.878Z,3.07
2017-10-27T07:52:28.900Z,3.20
2017-10-27T07:54:57.156Z,2.87
2017-10-27T07:57:25.425Z,2.80
2017-10-27T07:59:53.681Z,2.97
2017-10-27T08:02:22.707Z,3.87
2017-10-27T08:04:50.968Z,4.00
2017-10-27T08:07:19.249Z,2.83
2017-10-27T08:09:47.490Z,2.43
2017-10-27T08:12:15.792Z,2.83
2017-10-27T08:14:44.082Z,3.30
2017-10-27T08:17:12.370Z,2.53
2017-10-27T08:19:40.645Z,3.20
2017-10-27T08:22:08.916Z,3.57
2017-10-27T08:24:37.283Z,2.90
2017-10-27T08:27:06.208Z,3.40
2017-10-27T08:29:34.494Z,4.40
2017-10-27T08:32:02.781Z,2.97
2017-10-27T08:34:31.094Z,3.13
2017-10-27T08:36:59.376Z,2.43
2017-10-27T08:39:27.668Z,3.40
2017-10-27T08:41:55.967Z,2.37
2017-10-27T08:44:24.368Z,2.30
2017-10-27T08:46:52.694Z,2.37
2017-10-27T08:49:21.709Z,2.13
2017-10-27T08:51:49.960Z,2.10
2017-10-27T08:54:18.237Z,2.50
2017-10-27T08:56:47.255Z,2.77
2017-10-27T08:59:15.519Z,5.03
2017-10-27T09:01:43.784Z,2.90
2017-10-27T09:04:12.067Z,2.40
2017-10-27T09:06:40.326Z,2.90
2017-10-27T09:09:08.595Z,2.33
2017-10-27T09:11:36.833Z,2.67
2017-10-27T09:14:05.176Z,2.87
2017-10-27T09:16:33.415Z,2.20
2017-10-27T09:19:01.911Z,2.27
2017-10-27T09:21:33.005Z,2.57
2017-10-27T09:24:01.281Z,3.27
2017-10-27T09:26:29.569Z,2.80
2017-10-27T09:28:57.884Z,2.37
2017-10-27T09:31:26.154Z,2.43
2017-10-27T09:33:54.474Z,3.13
2017-10-27T09:36:22.776Z,2.67
2017-10-27T09:38:51.052Z,2.53
2017-10-27T09:41:19.343Z,2.57
2017-10-27T09:43:47.614Z,2.23
2017-10-27T09:46:15.987Z,2.27
2017-10-27T09:48:44.262Z,2.40
2017-10-27T09:51:12.514Z,2.23
2017-10-27T09:53:40.811Z,2.03
2017-10-27T09:56:09.056Z,2.80
2017-10-27T09:58:37.407Z,3.20
2017-10-27T10:01:05.647Z,2.40
2017-10-27T10:03:33.960Z,2.77
2017-10-27T10:06:02.263Z,2.03
2017-10-27T10:08:31.318Z,2.90
2017-10-27T10:11:00.544Z,3.83
2017-10-27T10:13:28.840Z,2.47
2017-10-27T10:15:57.128Z,2.97
2017-10-27T10:18:25.414Z,2.00
2017-10-27T10:20:53.688Z,2.30
2017-10-27T10:23:21.970Z,2.10
2017-10-27T10:25:50.295Z,2.43
2017-10-27T10:28:18.766Z,1.90
2017-10-27T10:30:47.044Z,3.13
2017-10-27T10:33:15.299Z,3.43
2017-10-27T10:35:43.585Z,2.60
2017-10-27T10:38:11.840Z,2.67
2017-10-27T10:40:40.931Z,2.50
2017-10-27T10:43:09.204Z,2.67
2017-10-27T10:45:37.474Z,2.10
2017-10-27T10:48:05.732Z,2.70
2017-10-27T10:50:34.031Z,2.70
2017-10-27T10:53:02.301Z,2.63
2017-10-27T10:55:30.638Z,2.40
2017-10-27T10:57:58.949Z,1.90
2017-10-27T11:00:27.217Z,2.20
2017-10-27T11:02:55.557Z,1.80
2017-10-27T11:05:24.611Z,2.23
2017-10-27T11:07:53.051Z,2.67
2017-10-27T11:10:21.522Z,2.53
2017-10-27T11:12:50.562Z,2.37
2017-10-27T11:15:18.851Z,1.70
2017-10-27T11:17:47.112Z,2.60
2017-10-27T11:20:15.397Z,2.60
2017-10-27T11:22:43.685Z,2.63
2017-10-27T11:25:11.980Z,2.17
2017-10-27T11:27:40.277Z,2.77
2017-10-27T11:30:08.613Z,6.00
2017-10-27T11:32:36.873Z,2.90
2017-10-27T11:35:05.115Z,2.17
2017-10-27T11:37:34.157Z,2.53
2017-10-27T11:40:02.453Z,2.33
2017-10-27T11:42:30.697Z,2.17
2017-10-27T11:44:58.980Z,2.10
2017-10-27T11:47:27.200Z,2.00
2017-10-27T11:49:55.584Z,2.27
2017-10-27T11:52:23.812Z,2.03
2017-10-27T11:54:52.075Z,2.40
2017-10-27T11:57:20.319Z,1.90
2017-10-27T11:59:49.364Z,2.17
2017-10-27T12:02:17.605Z,2.07
2017-10-27T12:04:45.838Z,3.73
2017-10-27T12:07:14.088Z,2.23
2017-10-27T12:09:42.363Z,2.77
2017-10-27T12:12:10.652Z,1.93
2017-10-27T12:14:38.961Z,1.60
2017-10-27T12:17:07.454Z,2.10
2017-10-27T12:19:35.725Z,1.80
2017-10-27T12:22:04.069Z,2.50
2017-10-27T12:24:32.338Z,2.10
2017-10-27T12:27:00.631Z,2.40
2017-10-27T12:29:28.923Z,2.17
2017-10-27T12:31:57.971Z,1.80
2017-10-27T12:34:26.227Z,1.90
2017-10-27T12:36:54.503Z,2.27
2017-10-27T12:39:22.805Z,1.73
2017-10-27T12:41:51.071Z,2.03
2017-10-27T12:44:19.485Z,3.20
2017-10-27T12:46:47.774Z,5.17
2017-10-27T12:49:16.046Z,1.80
2017-10-27T12:51:44.306Z,2.10
2017-10-27T12:54:12.635Z,1.80
2017-10-27T12:56:40.932Z,2.10
2017-10-27T12:59:09.182Z,1.60
2017-10-27T13:01:38.219Z,2.33
2017-10-27T13:04:06.525Z,1.80
2017-10-27T13:06:34.797Z,1.83
2017-10-27T13:09:03.046Z,2.03
2017-10-27T13:11:31.322Z,1.90
2017-10-27T13:13:59.617Z,2.00
2017-10-27T13:16:27.915Z,2.00
2017-10-27T13:18:56.828Z,1.70
2017-10-27T13:21:25.164Z,2.63
2017-10-27T13:23:54.349Z,2.53
2017-10-27T13:26:22.715Z,2.37
2017-10-27T13:28:51.003Z,2.10
2017-10-27T13:31:19.295Z,2.23
2017-10-27T13:33:47.621Z,2.03
2017-10-27T13:36:15.894Z,1.67
2017-10-27T13:38:44.281Z,2.30
2017-10-27T13:41:13.064Z,4.30
2017-10-27T13:43:41.311Z,2.47
2017-10-27T13:46:10.346Z,1.97
2017-10-27T13:48:38.750Z,2.20
2017-10-27T13:51:07.020Z,2.43
2017-10-27T13:53:35.303Z,2.30
2017-10-27T13:56:03.634Z,1.70
2017-10-27T13:58:31.910Z,1.23
2017-10-27T14:01:00.189Z,2.00
2017-10-27T14:03:28.488Z,2.37
2017-10-27T14:05:56.755Z,1.73
2017-10-27T14:08:25.017Z,1.80
2017-10-27T14:10:53.280Z,2.87
2017-10-27T14:13:21.578Z,2.00
2017-10-27T14:15:51.077Z,2.87
2017-10-27T14:18:19.471Z,2.10
2017-10-27T14:20:47.736Z,2.07
2017-10-27T14:23:16.776Z,2.17
2017-10-27T14:25:45.053Z,1.57
2017-10-27T14:28:13.438Z,1.80
2017-10-27T14:30:41.714Z,9.27
2017-10-27T14:33:09.964Z,3.23
2017-10-27T14:35:38.223Z,2.10
2017-10-27T14:38:06.770Z,1.83
2017-10-27T14:40:35.013Z,2.00
2017-10-27T14:43:03.436Z,2.60
2017-10-27T14:45:32.448Z,1.90
2017-10-27T14:48:00.778Z,2.43
2017-10-27T14:50:29.059Z,2.00
2017-10-27T14:52:57.304Z,2.27
2017-10-27T14:55:25.567Z,2.47
2017-10-27T14:57:53.924Z,2.27
2017-10-27T15:00:22.967Z,2.40
2017-10-27T15:02:51.226Z,2.87
2017-10-27T15:05:19.512Z,2.47
2017-10-27T15:07:47.809Z,2.50
2017-10-27T15:10:16.083Z,2.50
2017-10-27T15:12:44.491Z,2.53
2017-10-27T15:15:12.735Z,1.90
2017-10-27T15:17:41.016Z,4.10
2017-10-27T15:20:09.300Z,4.03
2017-10-27T15:22:37.589Z,2.97
2017-10-27T15:25:07.944Z,2.40
2017-10-27T15:27:37.243Z,2.57
2017-10-27T15:30:05.515Z,2.10
2017-10-27T15:32:33.890Z,1.87
2017-10-27T15:35:02.243Z,2.10
2017-10-27T15:37:30.501Z,2.73
2017-10-27T15:39:58.782Z,2.33
2017-10-27T15:42:27.036Z,2.20
2017-10-27T15:44:55.290Z,2.77
2017-10-27T15:47:23.555Z,2.03
2017-10-27T15:49:51.880Z,1.97
2017-10-27T15:52:20.133Z,1.93
2017-10-27T15:54:48.406Z,2.87
2017-10-27T15:57:16.700Z,3.00
2017-10-27T15:59:45.044Z,2.23
2017-10-27T16:02:13.328Z,3.63
2017-10-27T16:04:41.646Z,5.90
2017-10-27T16:07:09.932Z,4.60
2017-10-27T16:09:38.307Z,3.07
2017-10-27T16:12:06.590Z,2.47
2017-10-27T16:14:34.922Z,2.40
2017-10-27T16:17:03.243Z,1.90
2017-10-27T16:19:31.469Z,1.87
2017-10-27T16:21:59.747Z,1.80
2017-10-27T16:24:28.014Z,1.63
2017-10-27T16:26:56.250Z,1.77
2017-10-27T16:29:24.512Z,2.10
2017-10-27T16:31:52.756Z,1.80
2017-10-27T16:34:21.047Z,2.63
2017-10-27T16:36:49.355Z,2.73
2017-10-27T16:39:17.675Z,2.47
2017-10-27T16:41:45.971Z,1.93
2017-10-27T16:44:14.258Z,2.53
2017-10-27T16:46:42.520Z,2.50
2017-10-27T16:49:10.779Z,2.10
2017-10-27T16:51:39.084Z,2.53
2017-10-27T16:54:07.334Z,2.13
2017-10-27T16:56:35.599Z,2.20
2017-10-27T16:59:03.851Z,2.07
2017-10-27T17:01:32.143Z,2.60
2017-10-27T17:04:01.155Z,2.20
2017-10-27T17:06:29.468Z,2.10
2017-10-27T17:08:57.735Z,2.47
2017-10-27T17:11:26.039Z,1.73
2017-10-27T17:13:54.313Z,2.00
2017-10-27T17:16:22.569Z,2.47
2017-10-27T17:18:50.828Z,1.83
2017-10-27T17:21:19.084Z,2.00
2017-10-27T17:23:47.370Z,2.40
2017-10-27T17:26:15.649Z,2.50
2017-10-27T17:28:43.903Z,9.13
2017-10-27T17:31:12.962Z,5.80
2017-10-27T17:33:41.219Z,2.90
2017-10-27T17:36:09.515Z,3.30
2017-10-27T17:38:37.784Z,3.60
2017-10-27T17:41:06.075Z,2.90
2017-10-27T17:43:34.334Z,3.63
2017-10-27T17:46:02.613Z,3.00
2017-10-27T17:48:30.884Z,3.50
2017-10-27T17:50:59.163Z,3.50
2017-10-27T17:53:27.403Z,3.23
2017-10-27T17:55:55.679Z,3.20
2017-10-27T17:58:23.972Z,2.93
2017-10-27T18:00:52.239Z,2.77
2017-10-27T18:03:20.542Z,3.07
2017-10-27T18:05:48.815Z,2.80
2017-10-27T18:08:17.095Z,3.10
2017-10-27T18:10:45.349Z,3.00
2017-10-27T18:13:13.630Z,2.40
2017-10-27T18:15:41.908Z,3.00
2017-10-27T18:18:10.250Z,3.30
2017-10-27T18:20:38.484Z,2.53
2017-10-27T18:23:06.731Z,2.33
2017-10-27T18:25:35.012Z,2.30
2017-10-27T18:28:03.264Z,2.63
2017-10-27T18:30:31.549Z,2.20
2017-10-27T18:32:59.830Z,3.40
2017-10-27T18:35:28.094Z,4.60
2017-10-27T18:37:56.372Z,2.57
2017-10-27T18:40:24.644Z,2.80
2017-10-27T18:42:52.933Z,2.60
2017-10-27T18:45:21.211Z,3.10
2017-10-27T18:47:49.508Z,2.97
2017-10-27T18:50:17.748Z,3.07
2017-10-27T18:52:46.008Z,2.90
2017-10-27T18:55:14.276Z,2.30
2017-10-27T18:57:42.500Z,2.80
2017-10-27T19:00:10.751Z,2.90
2017-10-27T19:02:39.019Z,3.30
2017-10-27T19:05:08.043Z,2.97
2017-10-27T19:07:36.301Z,3.40
2017-10-27T19:10:04.556Z,3.20
2017-10-27T19:12:32.824Z,3.27
2017-10-27T19:15:01.045Z,2.67
2017-10-27T19:17:29.304Z,2.70
2017-10-27T19:19:57.552Z,2.73
2017-10-27T19:22:25.794Z,2.23
2017-10-27T19:24:54.059Z,8.07
2017-10-27T19:27:22.325Z,22.43
2017-10-27T19:29:54.471Z,6.37
2017-10-27T19:32:22.703Z,4.90
2017-10-27T19:34:50.999Z,4.00
2017-10-27T19:37:20.024Z,3.60
2017-10-27T19:39:48.284Z,3.80
2017-10-27T19:42:17.320Z,3.07
2017-10-27T19:44:45.549Z,2.80
2017-10-27T19:47:13.822Z,2.80
2017-10-27T19:49:42.085Z,2.67
2017-10-27T19:52:10.312Z,2.80
2017-10-27T19:54:38.591Z,2.80
2017-10-27T19:57:06.830Z,3.27
2017-10-27T19:59:35.867Z,2.23
2017-10-27T20:02:04.255Z,9.47
2017-10-27T20:04:32.983Z,5.57
2017-10-27T20:07:01.214Z,4.30
2017-10-27T20:09:29.502Z,3.03
2017-10-27T20:11:57.736Z,3.00
2017-10-27T20:14:26.013Z,2.87
2017-10-27T20:16:55.028Z,3.90
2017-10-27T20:19:23.444Z,3.17
2017-10-27T20:21:51.695Z,3.37
2017-10-27T20:24:19.952Z,2.20
2017-10-27T20:26:48.223Z,2.80
2017-10-27T20:29:16.469Z,2.10
2017-10-27T20:31:45.475Z,2.23
2017-10-27T20:34:14.515Z,2.23
2017-10-27T20:36:42.778Z,2.53
2017-10-27T20:39:11.060Z,2.43
2017-10-27T20:41:39.384Z,3.10
2017-10-27T20:44:07.651Z,2.57
2017-10-27T20:46:35.876Z,2.80
2017-10-27T20:49:04.242Z,2.60
2017-10-27T20:51:32.468Z,3.00
2017-10-27T20:54:01.602Z,2.87
2017-10-27T20:56:29.858Z,3.10
2017-10-27T20:58:58.871Z,3.10
2017-10-27T21:01:27.143Z,2.27
2017-10-27T21:03:55.402Z,2.53
2017-10-27T21:06:23.692Z,2.67
2017-10-27T21:08:51.933Z,3.00
2017-10-27T21:11:21.704Z,2.93
2017-10-27T21:13:49.951Z,3.10
2017-10-27T21:16:18.208Z,3.00
2017-10-27T21:18:46.452Z,3.00
2017-10-27T21:21:14.717Z,2.80
2017-10-27T21:23:43.709Z,3.10
2017-10-27T21:26:11.986Z,2.60
2017-10-27T21:28:40.244Z,3.57
2017-10-27T21:31:08.513Z,3.60
2017-10-27T21:33:36.800Z,3.20
2017-10-27T21:36:05.046Z,2.80
2017-10-27T21:38:33.323Z,3.50
2017-10-27T21:41:01.617Z,3.63
2017-10-27T21:43:30.654Z,3.63
2017-10-27T21:45:58.890Z,3.63
2017-10-27T21:48:27.176Z,3.60
2017-10-27T21:50:55.459Z,3.13
2017-10-27T21:53:23.716Z,3.67
2017-10-27T21:55:51.981Z,3.80
2017-10-27T21:58:20.997Z,3.47
2017-10-27T22:00:49.271Z,3.83
2017-10-27T22:03:17.548Z,4.83
2017-10-27T22:05:45.786Z,3.80
2017-10-27T22:08:14.043Z,4.07
2017-10-27T22:10:42.272Z,3.00
2017-10-27T22:13:10.550Z,3.80
2017-10-27T22:15:38.812Z,3.37
2017-10-27T22:18:07.837Z,4.00
2017-10-27T22:20:36.088Z,3.50
2017-10-27T22:23:04.353Z,3.67
2017-10-27T22:25:32.638Z,3.80
2017-10-27T22:28:01.640Z,3.20
2017-10-27T22:30:29.882Z,3.60
2017-10-27T22:32:58.115Z,3.43
2017-10-27T22:35:26.407Z,4.23
2017-10-27T22:37:54.851Z,4.20
2017-10-27T22:40:23.103Z,3.73
2017-10-27T22:42:52.139Z,3.90
2017-10-27T22:45:20.368Z,3.47
2017-10-27T22:47:48.624Z,3.80
2017-10-27T22:50:16.877Z,3.90
2017-10-27T22:52:45.145Z,3.60
2017-10-27T22:55:13.375Z,3.27
2017-10-27T22:57:41.639Z,3.40
2017-10-27T23:00:09.891Z,4.20
2017-10-27T23:02:38.148Z,3.70
2017-10-27T23:05:06.408Z,4.03
2017-10-27T23:07:40.382Z,4.23
2017-10-27T23:10:09.419Z,2.87
2017-10-27T23:12:37.694Z,3.10
2017-10-27T23:15:05.938Z,4.40
2017-10-27T23:17:34.187Z,3.83
2017-10-27T23:20:02.444Z,3.60
2017-10-27T23:22:30.686Z,3.30
2017-10-27T23:24:58.941Z,3.70
2017-10-27T23:27:27.942Z,3.00
2017-10-27T23:29:56.257Z,3.43
2017-10-27T23:32:24.495Z,3.70
2017-10-27T23:34:52.773Z,3.40
2017-10-27T23:37:21.791Z,3.67
2017-10-27T23:39:50.043Z,3.50
2017-10-27T23:42:19.075Z,2.83
2017-10-27T23:44:47.319Z,3.63
2017-10-27T23:47:15.582Z,3.53
2017-10-27T23:49:43.831Z,3.17
2017-10-27T23:52:12.078Z,3.43
2017-10-27T23:54:40.326Z,3.20
2017-10-27T23:57:09.332Z,3.33
2017-10-27T23:59:37.584Z,2.60
